Portada
METAR-TAF:

METAR-TAF

Aeroports :

Almeria, Espanya

latitud: 36-51N, longitud: 002-23W, altitud: 15 m

Observació

L'informe es va fer fa 14 minuts, a les 22:30 UTC
Vent 4 kt del Nord/Nord-Oest
Temperatura 15°C
Humitat 82%
Pressió 1018 hPa
Visibilitat 10 km o més

METAR: LEAM 122230Z AUTO 33004KT 9999 ////// 15/12 Q1018

Hora: 23:44 (22:44 UTC)

Pronòstic

L'informe es va fer fa 2 hores i 44 minuts, a les 20:00 UTC
Pronòstic vàlid del 12 a les 21 UTC al 13 a les 21 UTC
Vent 6 kt del Nord/Nord-Oest
Visibilitat 10 km o més
Escasses núvols a una alçada de 2500 ft
Evolucionant progressivament
l' 13 a les 09 UTC al 13 a les 11 UTC
Vent 16 kt del Est/Nord-Est
Evolucionant progressivament
l' 13 a les 18 UTC al 13 a les 20 UTC
Vent 6 kt del Nord/Nord-Oest

TAF: LEAM 122000Z 1221/1321 34006KT 9999 FEW025 TX22/1314Z TN13/1306Z BECMG 1309/1311 07016KT BECMG 1318/1320 34006KT

Observacions i pronòstics meteorològics de més de 4000 aeroports (METAR i TAF).

Les estacions disponibles són els punts grocs i vermells al mapa.

Posi el ratolí al punt desitjat per veure el nom de l'estació.

Feu clic per veure les observacions i els pronòstics meteorològics.

Per canviar el mapa: feu clic els botons verds amb una creu de color negre per apropar; al botó verd amb un guió per allunyar la imatge; o en les fletxes verdes per a mapes adjacents.


METAR-TAF: